createdAt,value
2022-09-24T00:01:19.713Z,89.40
2022-09-24T00:04:20.135Z,89.30
2022-09-24T00:07:18.442Z,89.10
2022-09-24T00:10:17.074Z,88.80
2022-09-24T00:13:17.942Z,88.80
2022-09-24T00:16:18.492Z,88.80
2022-09-24T00:19:16.748Z,88.70
2022-09-24T00:22:15.429Z,88.80
2022-09-24T00:25:28.854Z,88.50
2022-09-24T00:28:28.170Z,88.00
2022-09-24T00:31:26.840Z,87.80
2022-09-24T00:34:25.589Z,87.90
2022-09-24T00:37:23.685Z,88.50
2022-09-24T00:40:27.554Z,89.20
2022-09-24T00:43:30.058Z,89.40
2022-09-24T00:46:44.756Z,89.70
2022-09-24T00:49:43.925Z,89.60
2022-09-24T00:52:49.060Z,89.70
2022-09-24T00:55:52.329Z,89.60
2022-09-24T00:58:54.591Z,89.30
2022-09-24T01:01:55.719Z,89.20
2022-09-24T01:04:56.638Z,89.40
2022-09-24T01:07:55.439Z,89.40
2022-09-24T01:11:20.464Z,89.50
2022-09-24T01:14:52.036Z,89.70
2022-09-24T01:18:21.756Z,90.00
2022-09-24T01:21:29.304Z,90.00
2022-09-24T01:24:52.859Z,89.90
2022-09-24T01:28:16.386Z,90.00
2022-09-24T01:31:22.937Z,89.70
2022-09-24T01:34:27.469Z,89.30
2022-09-24T01:37:29.436Z,89.40
2022-09-24T01:40:29.739Z,89.40
2022-09-24T01:43:30.895Z,89.60
2022-09-24T01:46:29.853Z,88.30
2022-09-24T01:49:29.160Z,88.60
2022-09-24T01:52:34.561Z,87.90
2022-09-24T01:55:41.432Z,87.00
2022-09-24T01:58:58.277Z,86.80
2022-09-24T02:02:08.379Z,86.70
2022-09-24T02:05:18.250Z,86.60
2022-09-24T02:08:29.949Z,86.70
2022-09-24T02:11:28.985Z,86.80
2022-09-24T02:14:32.389Z,86.50
2022-09-24T02:17:34.186Z,86.00
2022-09-24T02:20:36.861Z,86.40
2022-09-24T02:23:38.014Z,86.30
2022-09-24T02:26:36.851Z,86.90
2022-09-24T02:29:35.892Z,86.80
2022-09-24T02:32:37.529Z,86.70
2022-09-24T02:35:41.154Z,86.40
2022-09-24T02:38:40.569Z,85.70
2022-09-24T02:41:39.364Z,84.40
2022-09-24T02:44:38.360Z,83.90
2022-09-24T02:47:37.491Z,81.60
2022-09-24T02:50:36.227Z,80.90
2022-09-24T02:53:34.446Z,80.20
2022-09-24T02:56:33.216Z,78.50
2022-09-24T02:59:31.468Z,79.30
2022-09-24T03:02:30.225Z,77.60
2022-09-24T03:05:28.430Z,77.20
2022-09-24T03:08:27.654Z,75.40
2022-09-24T03:11:26.069Z,75.50
2022-09-24T03:14:25.612Z,75.30
2022-09-24T03:17:23.799Z,74.60
2022-09-24T03:20:24.713Z,75.30
2022-09-24T03:23:22.966Z,73.40
2022-09-24T03:26:21.722Z,73.40
2022-09-24T03:29:39.785Z,72.40
2022-09-24T03:32:39.922Z,72.60
2022-09-24T03:35:38.129Z,72.70
2022-09-24T03:38:38.884Z,72.00
2022-09-24T03:41:37.041Z,71.90
2022-09-24T03:44:35.632Z,71.40
2022-09-24T03:47:34.420Z,71.10
2022-09-24T03:50:36.474Z,70.60
2022-09-24T03:53:35.052Z,70.40
2022-09-24T03:56:33.988Z,70.60
2022-09-24T03:59:32.278Z,69.90
2022-09-24T04:02:31.725Z,69.40
2022-09-24T04:05:30.756Z,69.60
2022-09-24T04:08:29.457Z,69.40
2022-09-24T04:11:28.078Z,69.70
2022-09-24T04:14:26.701Z,69.00
2022-09-24T04:17:28.271Z,69.10
2022-09-24T04:20:29.845Z,69.00
2022-09-24T04:23:29.413Z,69.30
2022-09-24T04:26:28.063Z,69.20
2022-09-24T04:29:26.222Z,69.60
2022-09-24T04:32:25.001Z,69.00
2022-09-24T04:35:24.734Z,69.30
2022-09-24T04:38:23.432Z,68.20
2022-09-24T04:41:21.942Z,68.30
2022-09-24T04:44:20.954Z,68.40
2022-09-24T04:47:19.505Z,67.90
2022-09-24T04:50:18.232Z,68.20
2022-09-24T04:53:16.368Z,67.90
2022-09-24T04:56:15.911Z,67.80
2022-09-24T04:59:14.037Z,67.60
2022-09-24T05:02:12.928Z,66.80
2022-09-24T05:05:12.348Z,67.00
2022-09-24T05:08:11.453Z,66.80
2022-09-24T05:11:09.765Z,67.20
2022-09-24T05:14:08.972Z,67.10
2022-09-24T05:17:07.323Z,67.40
2022-09-24T05:20:07.608Z,68.70
2022-09-24T05:23:05.833Z,67.80
2022-09-24T05:26:19.739Z,67.80
2022-09-24T05:29:18.277Z,68.80
2022-09-24T05:32:21.956Z,68.20
2022-09-24T05:35:23.406Z,67.70
2022-09-24T05:38:22.163Z,66.30
2022-09-24T05:41:20.878Z,67.10
2022-09-24T05:44:22.149Z,67.80
2022-09-24T05:47:20.486Z,67.20
2022-09-24T05:50:19.322Z,66.40
2022-09-24T05:53:17.448Z,67.40
2022-09-24T05:56:16.120Z,67.20
2022-09-24T05:59:14.632Z,67.60
2022-09-24T06:02:13.411Z,66.90
2022-09-24T06:05:12.207Z,67.10
2022-09-24T06:08:10.924Z,66.20
2022-09-24T06:11:09.075Z,67.10
2022-09-24T06:14:09.232Z,66.30
2022-09-24T06:17:07.596Z,66.60
2022-09-24T06:20:06.690Z,65.50
2022-09-24T06:23:06.316Z,65.60
2022-09-24T06:26:08.119Z,65.00
2022-09-24T06:29:06.374Z,64.60
2022-09-24T06:32:05.265Z,65.00
2022-09-24T06:35:03.661Z,65.50
2022-09-24T06:38:03.248Z,66.10
2022-09-24T06:41:03.855Z,64.80
2022-09-24T06:44:02.924Z,63.90
2022-09-24T06:47:02.165Z,64.90
2022-09-24T06:50:01.035Z,64.80
2022-09-24T06:52:59.570Z,64.70
2022-09-24T06:56:00.294Z,64.30
2022-09-24T06:58:58.423Z,63.50
2022-09-24T07:01:57.156Z,64.00
2022-09-24T07:04:55.357Z,64.30
2022-09-24T07:07:54.105Z,64.20
2022-09-24T07:10:52.928Z,64.10
2022-09-24T07:13:53.077Z,63.80
2022-09-24T07:16:51.262Z,64.20
2022-09-24T07:19:50.337Z,63.10
2022-09-24T07:22:48.507Z,62.50
2022-09-24T07:25:47.163Z,61.80
2022-09-24T07:28:45.364Z,62.60
2022-09-24T07:31:44.024Z,62.60
2022-09-24T07:34:42.503Z,62.50
2022-09-24T07:37:41.201Z,62.00
2022-09-24T07:40:39.446Z,61.20
2022-09-24T07:43:39.260Z,61.30
2022-09-24T07:46:37.535Z,61.40
2022-09-24T07:49:37.273Z,61.20
2022-09-24T07:52:36.004Z,59.40
2022-09-24T07:55:40.120Z,60.80
2022-09-24T07:58:38.258Z,61.00
2022-09-24T08:01:37.460Z,62.00
2022-09-24T08:04:35.921Z,61.00
2022-09-24T08:07:34.618Z,60.60
2022-09-24T08:10:32.730Z,60.70
2022-09-24T08:13:31.443Z,59.20
2022-09-24T08:16:29.623Z,59.70
2022-09-24T08:19:28.811Z,59.50
2022-09-24T08:22:27.085Z,60.30
2022-09-24T08:25:25.983Z,60.30
2022-09-24T08:28:24.308Z,59.20
2022-09-24T08:31:23.072Z,58.60
2022-09-24T08:34:21.297Z,58.00
2022-09-24T08:37:20.014Z,58.20
2022-09-24T08:40:21.926Z,58.40
2022-09-24T08:43:49.026Z,58.40
2022-09-24T08:47:09.087Z,58.20
2022-09-24T08:50:17.871Z,57.90
2022-09-24T08:53:26.543Z,57.10
2022-09-24T08:56:29.887Z,56.50
2022-09-24T08:59:33.239Z,56.50
2022-09-24T09:02:59.781Z,55.80
2022-09-24T09:06:04.149Z,55.80
2022-09-24T09:09:15.721Z,54.80
2022-09-24T09:12:20.010Z,55.70
2022-09-24T09:15:28.208Z,55.80
2022-09-24T09:18:33.575Z,55.00
2022-09-24T09:21:53.122Z,55.10
2022-09-24T09:24:53.585Z,55.90
2022-09-24T09:27:57.154Z,56.70
2022-09-24T09:31:19.562Z,57.00
2022-09-24T09:34:44.851Z,57.80
2022-09-24T09:37:55.610Z,58.70
2022-09-24T09:41:18.738Z,58.60
2022-09-24T09:44:22.785Z,58.40
2022-09-24T09:47:41.952Z,59.10
2022-09-24T09:50:48.395Z,58.70
2022-09-24T09:54:03.811Z,58.30
2022-09-24T09:57:04.312Z,57.40
2022-09-24T10:00:04.253Z,56.90
2022-09-24T10:03:03.796Z,57.20
2022-09-24T10:06:04.338Z,57.50
2022-09-24T10:09:20.426Z,56.80
2022-09-24T10:12:22.837Z,56.90
2022-09-24T10:15:25.205Z,56.50
2022-09-24T10:18:31.537Z,56.70
2022-09-24T10:21:35.168Z,57.00
2022-09-24T10:24:36.368Z,57.10
2022-09-24T10:27:37.985Z,57.20
2022-09-24T10:30:48.532Z,56.50
2022-09-24T10:33:49.756Z,55.40
2022-09-24T10:36:53.267Z,55.90
2022-09-24T10:40:15.804Z,55.70
2022-09-24T10:43:20.214Z,55.80
2022-09-24T10:46:44.548Z,55.20
2022-09-24T10:50:03.691Z,55.50
2022-09-24T10:53:09.155Z,56.10
2022-09-24T10:56:21.811Z,56.00
2022-09-24T10:59:44.253Z,56.20
2022-09-24T11:03:00.786Z,55.80
2022-09-24T11:06:19.227Z,55.70
2022-09-24T11:09:48.832Z,56.20
2022-09-24T11:13:17.552Z,55.90
2022-09-24T11:16:39.675Z,56.20
2022-09-24T11:20:13.180Z,56.00
2022-09-24T11:23:37.438Z,56.60
2022-09-24T11:27:05.482Z,56.50
2022-09-24T11:30:16.397Z,56.30
2022-09-24T11:33:30.783Z,56.60
2022-09-24T11:36:49.128Z,56.20
2022-09-24T11:40:12.616Z,56.20
2022-09-24T11:43:33.336Z,56.70
2022-09-24T11:46:57.350Z,56.80
2022-09-24T11:50:26.745Z,56.90
2022-09-24T11:53:37.428Z,57.30
2022-09-24T11:56:44.017Z,57.60
2022-09-24T11:59:51.702Z,57.70
2022-09-24T12:02:57.325Z,57.80
2022-09-24T12:06:08.103Z,58.00
2022-09-24T12:09:46.502Z,58.00
2022-09-24T12:12:48.001Z,58.00
2022-09-24T12:15:53.311Z,58.30
2022-09-24T12:19:11.039Z,57.90
2022-09-24T12:22:11.312Z,58.50
2022-09-24T12:25:13.590Z,58.50
2022-09-24T12:28:36.464Z,59.20
2022-09-24T12:32:10.270Z,60.30
2022-09-24T12:35:20.357Z,61.60
2022-09-24T12:38:32.101Z,62.20
2022-09-24T12:41:48.295Z,63.10
2022-09-24T12:44:52.633Z,63.80
2022-09-24T12:47:57.646Z,64.00
2022-09-24T12:51:00.344Z,64.20
2022-09-24T12:54:06.599Z,64.60
2022-09-24T12:57:25.324Z,65.40
2022-09-24T13:00:39.662Z,65.70
2022-09-24T13:03:46.644Z,66.20
2022-09-24T13:06:48.808Z,66.30
2022-09-24T13:09:47.095Z,66.80
2022-09-24T13:12:47.014Z,67.00
2022-09-24T13:15:45.730Z,67.00
2022-09-24T13:18:52.085Z,67.30
2022-09-24T13:21:59.671Z,67.10
2022-09-24T13:25:19.884Z,67.40
2022-09-24T13:28:29.257Z,67.50
2022-09-24T13:31:49.489Z,68.50
2022-09-24T13:34:50.686Z,68.30
2022-09-24T13:37:56.455Z,67.80
2022-09-24T13:41:07.536Z,68.40
2022-09-24T13:44:22.991Z,68.60
2022-09-24T13:47:36.596Z,68.60
2022-09-24T13:50:40.861Z,68.70
2022-09-24T13:53:47.524Z,68.70
2022-09-24T13:57:07.522Z,68.90
2022-09-24T14:00:20.265Z,69.20
2022-09-24T14:03:26.351Z,69.30
2022-09-24T14:06:35.884Z,69.60
2022-09-24T14:09:36.772Z,69.90
2022-09-24T14:12:35.020Z,70.30
2022-09-24T14:15:33.661Z,70.40
2022-09-24T14:18:35.085Z,70.40
2022-09-24T14:21:41.633Z,70.60
2022-09-24T14:24:44.446Z,70.80
2022-09-24T14:27:46.984Z,71.10
2022-09-24T14:30:55.573Z,71.00
2022-09-24T14:33:54.461Z,70.20
2022-09-24T14:36:54.923Z,70.70
2022-09-24T14:40:02.726Z,70.70
2022-09-24T14:43:03.703Z,70.80
2022-09-24T14:46:05.880Z,70.90
2022-09-24T14:49:07.482Z,71.20
2022-09-24T14:52:06.217Z,71.40
2022-09-24T14:55:20.980Z,71.70
2022-09-24T14:58:36.874Z,71.90
2022-09-24T15:01:35.220Z,72.10
2022-09-24T15:04:33.981Z,72.30
2022-09-24T15:07:33.280Z,72.60
2022-09-24T15:10:31.932Z,72.40
2022-09-24T15:13:36.292Z,72.70
2022-09-24T15:16:38.063Z,72.70
2022-09-24T15:19:37.666Z,72.90
2022-09-24T15:22:36.321Z,73.10
2022-09-24T15:25:34.720Z,73.20
2022-09-24T15:28:33.402Z,73.20
2022-09-24T15:31:31.965Z,73.20
2022-09-24T15:34:30.659Z,73.40
2022-09-24T15:37:30.150Z,73.60
2022-09-24T15:40:31.588Z,73.70
2022-09-24T15:43:30.060Z,73.70
2022-09-24T15:46:29.070Z,74.00
2022-09-24T15:49:27.680Z,74.10
2022-09-24T15:52:32.334Z,74.20
2022-09-24T15:55:31.738Z,74.30
2022-09-24T15:58:30.623Z,74.30
2022-09-24T16:01:28.904Z,74.40
2022-09-24T16:04:27.949Z,74.70
2022-09-24T16:07:26.757Z,74.80
2022-09-24T16:10:25.530Z,74.50
2022-09-24T16:13:24.225Z,75.00
2022-09-24T16:16:22.937Z,75.20
2022-09-24T16:19:21.091Z,75.30
2022-09-24T16:22:20.777Z,75.60
2022-09-24T16:25:19.217Z,75.70
2022-09-24T16:28:18.243Z,76.00
2022-09-24T16:31:16.476Z,76.10
2022-09-24T16:34:15.313Z,76.20
2022-09-24T16:37:15.047Z,76.20
2022-09-24T16:40:13.888Z,76.40
2022-09-24T16:43:12.059Z,76.40
2022-09-24T16:46:14.132Z,76.00
2022-09-24T16:49:18.038Z,76.10
2022-09-24T16:52:16.897Z,76.10
2022-09-24T16:55:15.166Z,75.80
2022-09-24T16:58:14.097Z,76.10
2022-09-24T17:01:14.898Z,75.80
2022-09-24T17:04:13.721Z,76.00
2022-09-24T17:07:13.780Z,76.40
2022-09-24T17:10:13.820Z,76.60
2022-09-24T17:13:11.966Z,77.20
2022-09-24T17:16:11.013Z,76.90
2022-09-24T17:19:12.195Z,77.00
2022-09-24T17:22:11.027Z,77.00
2022-09-24T17:25:09.648Z,76.80
2022-09-24T17:28:08.335Z,76.90
2022-09-24T17:31:07.758Z,76.90
2022-09-24T17:34:10.168Z,76.80
2022-09-24T17:37:08.447Z,76.50
2022-09-24T17:40:08.576Z,76.50
2022-09-24T17:43:06.782Z,76.30
2022-09-24T17:46:13.768Z,76.60
2022-09-24T17:49:13.089Z,76.70
2022-09-24T17:52:13.902Z,76.80
2022-09-24T17:55:12.059Z,76.90
2022-09-24T17:58:10.738Z,76.90
2022-09-24T18:01:13.243Z,77.00
2022-09-24T18:04:14.575Z,77.00
2022-09-24T18:07:12.727Z,77.00
2022-09-24T18:10:11.543Z,77.10
2022-09-24T18:13:09.886Z,77.30
2022-09-24T18:16:11.754Z,77.50
2022-09-24T18:19:12.555Z,77.70
2022-09-24T18:22:11.789Z,77.60
2022-09-24T18:25:10.675Z,77.70
2022-09-24T18:28:09.984Z,77.50
2022-09-24T18:31:11.022Z,77.70
2022-09-24T18:34:13.538Z,77.60
2022-09-24T18:37:11.736Z,77.90
2022-09-24T18:40:11.365Z,78.00
2022-09-24T18:43:09.558Z,78.10
2022-09-24T18:46:11.854Z,78.40
2022-09-24T18:49:11.908Z,78.50
2022-09-24T18:52:11.062Z,78.80
2022-09-24T18:55:09.977Z,78.90
2022-09-24T18:58:11.500Z,79.00
2022-09-24T19:01:10.088Z,78.80
2022-09-24T19:04:11.223Z,78.70
2022-09-24T19:07:10.216Z,78.70
2022-09-24T19:10:11.008Z,78.70
2022-09-24T19:13:12.256Z,78.90
2022-09-24T19:16:14.029Z,79.10
2022-09-24T19:19:12.769Z,79.30
2022-09-24T19:22:11.579Z,79.30
2022-09-24T19:25:10.311Z,79.30
2022-09-24T19:28:12.688Z,79.40
2022-09-24T19:31:16.834Z,79.20
2022-09-24T19:34:15.881Z,79.30
2022-09-24T19:37:14.398Z,79.00
2022-09-24T19:40:13.825Z,79.00
2022-09-24T19:43:12.726Z,79.00
2022-09-24T19:46:15.284Z,78.80
2022-09-24T19:49:14.148Z,78.70
2022-09-24T19:52:12.911Z,78.50
2022-09-24T19:55:11.328Z,78.30
2022-09-24T19:58:10.101Z,78.20
2022-09-24T20:01:12.449Z,78.10
2022-09-24T20:04:15.701Z,77.60
2022-09-24T20:07:14.576Z,78.20
2022-09-24T20:10:13.347Z,78.60
2022-09-24T20:13:13.011Z,78.60
2022-09-24T20:16:12.338Z,78.30
2022-09-24T20:19:12.891Z,78.70
2022-09-24T20:22:16.607Z,78.80
2022-09-24T20:25:15.530Z,78.20
2022-09-24T20:28:15.938Z,78.70
2022-09-24T20:31:16.568Z,78.50
2022-09-24T20:34:15.365Z,77.60
2022-09-24T20:37:13.714Z,78.00
2022-09-24T20:40:12.751Z,78.00
2022-09-24T20:43:10.993Z,77.80
2022-09-24T20:46:11.241Z,77.30
2022-09-24T20:49:19.094Z,78.00
2022-09-24T20:52:17.777Z,77.40
2022-09-24T20:55:16.169Z,77.50
2022-09-24T20:58:16.874Z,77.20
2022-09-24T21:01:16.213Z,77.30
2022-09-24T21:04:15.061Z,77.00
2022-09-24T21:07:13.359Z,77.50
2022-09-24T21:10:13.747Z,77.40
2022-09-24T21:13:12.786Z,77.60
2022-09-24T21:16:12.627Z,77.50
2022-09-24T21:19:12.850Z,77.40
2022-09-24T21:22:14.114Z,77.70
2022-09-24T21:25:12.269Z,78.00
2022-09-24T21:28:10.956Z,78.70
2022-09-24T21:31:09.970Z,78.40
2022-09-24T21:34:09.273Z,78.00
2022-09-24T21:37:08.092Z,78.50
2022-09-24T21:40:07.724Z,78.90
2022-09-24T21:43:07.310Z,78.90
2022-09-24T21:46:07.469Z,79.00
2022-09-24T21:49:05.639Z,78.60
2022-09-24T21:52:06.556Z,79.10
2022-09-24T21:55:05.024Z,79.20
2022-09-24T21:58:03.627Z,79.40
2022-09-24T22:01:05.184Z,79.30
2022-09-24T22:04:06.206Z,79.70
2022-09-24T22:07:04.991Z,80.00
2022-09-24T22:10:03.755Z,80.00
2022-09-24T22:13:02.036Z,79.90
2022-09-24T22:16:02.452Z,79.90
2022-09-24T22:19:01.125Z,79.30
2022-09-24T22:21:59.955Z,79.80
2022-09-24T22:24:58.144Z,80.20
2022-09-24T22:27:56.843Z,80.40
2022-09-24T22:30:57.353Z,80.20
2022-09-24T22:34:12.094Z,80.00
2022-09-24T22:37:10.322Z,80.40
2022-09-24T22:40:09.341Z,80.10
2022-09-24T22:43:07.613Z,79.90
2022-09-24T22:46:09.155Z,79.80
2022-09-24T22:49:08.605Z,80.10
2022-09-24T22:52:07.269Z,80.00
2022-09-24T22:55:05.959Z,80.10
2022-09-24T22:58:04.696Z,80.30
2022-09-24T23:01:11.031Z,80.00
2022-09-24T23:04:11.122Z,78.90
2022-09-24T23:07:09.319Z,79.30
2022-09-24T23:10:08.594Z,79.00
2022-09-24T23:13:06.788Z,78.80
2022-09-24T23:16:12.192Z,78.30
2022-09-24T23:19:16.610Z,77.80
2022-09-24T23:22:16.958Z,77.10
2022-09-24T23:25:15.175Z,77.20
2022-09-24T23:28:13.860Z,76.80
2022-09-24T23:31:14.150Z,76.90
2022-09-24T23:34:14.659Z,76.40
2022-09-24T23:37:13.298Z,76.80
2022-09-24T23:40:12.234Z,77.00
2022-09-24T23:43:10.665Z,77.40
2022-09-24T23:46:10.997Z,77.80
2022-09-24T23:49:09.266Z,77.90
2022-09-24T23:52:09.044Z,78.10
2022-09-24T23:55:07.550Z,78.00
2022-09-24T23:58:06.393Z,77.60
